Impacts METAR Board INFO
IDs:

KFLL - Ft Lauderdale-Hollyw, FL, US

Updated at: 1512 UTC 19 Jan 2018
Potential Impact None Slight Moderate High
Time19/03Z 19/04Z 19/05Z 19/06Z 19/07Z 19/08Z 19/09Z 19/10Z 19/11Z 19/12Z 19/13Z 19/14Z 19/15Z
VIS10 10 10 10 10 10 10 10 10 10 10 10 10
CIG250 250 250 250 250 250 250 250 250 250 250 250 250
CoverBKNBKNBKNBKNBKNBKNBKNBKNBKNBKNBKNBKNBKN
FltCatVFRVFRVFRVFRVFRVFRVFRVFRVFRVFRVFRVFRVFR
WX--------------------------
WDir350340340340320350320340340320350350350
WSpd8 8 7 8 6 8 5 6 5 5 6 6 6
WGst-- -- -- -- -- -- -- -- -- -- -- -- --
Raw hourly METARs
KFLL 190253Z 35008KT 10SM BKN250 11/08 A3029 RMK AO2 SLP257 T01060083 51018
KFLL 190353Z 34008KT 10SM SCT190 BKN250 10/08 A3029 RMK AO2 SLP256 T01000078
KFLL 190453Z 34007KT 10SM SCT180 BKN250 09/08 A3028 RMK AO2 SLP252 T00940078 401670050
KFLL 190553Z 34008KT 10SM BKN250 09/08 A3027 RMK AO2 SLP250 T00940078 10128 20094 58007
KFLL 190653Z 32006KT 10SM BKN250 09/08 A3025 RMK AO2 SLP244 T00890083
KFLL 190753Z 35008KT 10SM BKN250 09/08 A3024 RMK AO2 SLP238 T00890083
KFLL 190853Z 32005KT 10SM BKN250 09/08 A3024 RMK AO2 SLP239 T00890083 55011
KFLL 190953Z 34006KT 10SM BKN250 09/09 A3024 RMK AO2 SLP238 T00890089
KFLL 191053Z 34005KT 10SM BKN250 09/09 A3024 RMK AO2 SLP239 T00890089
KFLL 191153Z 32005KT 10SM FEW033 BKN250 09/09 A3025 RMK AO2 SLP244 T00890089 10094 20089 53004
KFLL 191253Z 35006KT 10SM FEW040 FEW180 BKN250 09/09 A3027 RMK AO2 SLP248 T00940094
KFLL 191353Z 35006KT 10SM FEW040 FEW180 BKN250 12/11 A3029 RMK AO2 SLP255 T01220106
KFLL 191453Z 35006KT 10SM FEW040 SCT180 BKN250 14/12 A3030 RMK AO2 SLP259 T01440117 53016